sensor_id;sensor_type;location;lat;lon;timestamp;P1;durP1;ratioP1;P2;durP2;ratioP2
38787;SDS011;24536;45.488;12.238;2023-08-17T00:02:11;5.07;;;3.22;;
38787;SDS011;24536;45.488;12.238;2023-08-17T00:04:38;6.07;;;3.58;;
38787;SDS011;24536;45.488;12.238;2023-08-17T00:07:04;3.80;;;3.40;;
38787;SDS011;24536;45.488;12.238;2023-08-17T00:09:30;3.50;;;3.20;;
38787;SDS011;24536;45.488;12.238;2023-08-17T00:11:56;3.95;;;2.95;;
38787;SDS011;24536;45.488;12.238;2023-08-17T00:14:21;5.18;;;3.20;;
38787;SDS011;24536;45.488;12.238;2023-08-17T00:16:49;6.88;;;3.50;;
38787;SDS011;24536;45.488;12.238;2023-08-17T00:19:15;3.55;;;3.25;;
38787;SDS011;24536;45.488;12.238;2023-08-17T00:21:41;3.17;;;2.90;;
38787;SDS011;24536;45.488;12.238;2023-08-17T00:24:07;4.40;;;3.40;;
38787;SDS011;24536;45.488;12.238;2023-08-17T00:26:33;5.38;;;3.25;;
38787;SDS011;24536;45.488;12.238;2023-08-17T00:28:58;3.42;;;3.13;;
38787;SDS011;24536;45.488;12.238;2023-08-17T00:31:24;3.58;;;3.15;;
38787;SDS011;24536;45.488;12.238;2023-08-17T00:33:50;4.75;;;4.07;;
38787;SDS011;24536;45.488;12.238;2023-08-17T00:36:15;5.43;;;4.30;;
38787;SDS011;24536;45.488;12.238;2023-08-17T00:38:41;3.60;;;3.30;;
38787;SDS011;24536;45.488;12.238;2023-08-17T00:41:07;3.95;;;3.28;;
38787;SDS011;24536;45.488;12.238;2023-08-17T00:43:32;3.90;;;3.50;;
38787;SDS011;24536;45.488;12.238;2023-08-17T00:45:58;3.80;;;3.38;;
38787;SDS011;24536;45.488;12.238;2023-08-17T00:48:24;3.95;;;3.60;;
38787;SDS011;24536;45.488;12.238;2023-08-17T00:50:51;5.05;;;3.90;;
38787;SDS011;24536;45.488;12.238;2023-08-17T00:53:18;4.50;;;3.60;;
38787;SDS011;24536;45.488;12.238;2023-08-17T00:55:45;4.35;;;3.70;;
38787;SDS011;24536;45.488;12.238;2023-08-17T00:58:11;4.55;;;3.88;;
38787;SDS011;24536;45.488;12.238;2023-08-17T01:00:37;4.53;;;3.72;;
38787;SDS011;24536;45.488;12.238;2023-08-17T01:03:03;5.20;;;3.75;;
38787;SDS011;24536;45.488;12.238;2023-08-17T01:05:29;4.68;;;3.75;;
38787;SDS011;24536;45.488;12.238;2023-08-17T01:07:57;3.78;;;3.47;;
38787;SDS011;24536;45.488;12.238;2023-08-17T01:10:25;4.85;;;4.32;;
38787;SDS011;24536;45.488;12.238;2023-08-17T01:18:04;5.00;;;3.78;;
38787;SDS011;24536;45.488;12.238;2023-08-17T01:20:47;7.15;;;3.92;;
38787;SDS011;24536;45.488;12.238;2023-08-17T01:23:14;5.07;;;4.57;;
38787;SDS011;24536;45.488;12.238;2023-08-17T01:25:40;8.00;;;4.20;;
38787;SDS011;24536;45.488;12.238;2023-08-17T01:28:06;4.20;;;3.67;;
38787;SDS011;24536;45.488;12.238;2023-08-17T01:33:24;4.88;;;3.97;;
38787;SDS011;24536;45.488;12.238;2023-08-17T01:38:40;4.15;;;3.75;;
38787;SDS011;24536;45.488;12.238;2023-08-17T01:41:08;4.32;;;3.88;;
38787;SDS011;24536;45.488;12.238;2023-08-17T01:43:41;4.53;;;4.07;;
38787;SDS011;24536;45.488;12.238;2023-08-17T01:46:12;5.20;;;4.13;;
38787;SDS011;24536;45.488;12.238;2023-08-17T01:48:40;4.53;;;4.10;;
38787;SDS011;24536;45.488;12.238;2023-08-17T01:51:06;3.88;;;3.40;;
38787;SDS011;24536;45.488;12.238;2023-08-17T01:53:32;5.68;;;4.28;;
38787;SDS011;24536;45.488;12.238;2023-08-17T01:55:58;6.97;;;4.55;;
38787;SDS011;24536;45.488;12.238;2023-08-17T01:58:24;5.22;;;3.70;;
38787;SDS011;24536;45.488;12.238;2023-08-17T02:00:49;5.10;;;3.70;;
38787;SDS011;24536;45.488;12.238;2023-08-17T02:03:15;4.25;;;3.85;;
38787;SDS011;24536;45.488;12.238;2023-08-17T02:05:44;6.95;;;5.13;;
38787;SDS011;24536;45.488;12.238;2023-08-17T02:08:11;4.30;;;3.88;;
38787;SDS011;24536;45.488;12.238;2023-08-17T02:10:36;4.50;;;4.10;;
38787;SDS011;24536;45.488;12.238;2023-08-17T02:13:02;4.65;;;4.13;;
38787;SDS011;24536;45.488;12.238;2023-08-17T02:15:28;7.25;;;4.85;;
38787;SDS011;24536;45.488;12.238;2023-08-17T02:17:53;4.85;;;4.35;;
38787;SDS011;24536;45.488;12.238;2023-08-17T02:20:19;4.50;;;4.10;;
38787;SDS011;24536;45.488;12.238;2023-08-17T02:22:45;6.47;;;4.05;;
38787;SDS011;24536;45.488;12.238;2023-08-17T02:25:10;4.38;;;3.95;;
38787;SDS011;24536;45.488;12.238;2023-08-17T02:27:36;5.90;;;4.10;;
38787;SDS011;24536;45.488;12.238;2023-08-17T02:30:02;4.50;;;4.10;;
38787;SDS011;24536;45.488;12.238;2023-08-17T02:32:29;5.22;;;4.30;;
38787;SDS011;24536;45.488;12.238;2023-08-17T02:34:54;4.60;;;4.20;;
38787;SDS011;24536;45.488;12.238;2023-08-17T02:37:20;4.93;;;4.10;;
38787;SDS011;24536;45.488;12.238;2023-08-17T02:39:46;4.57;;;4.18;;
38787;SDS011;24536;45.488;12.238;2023-08-17T02:42:11;4.32;;;3.92;;
38787;SDS011;24536;45.488;12.238;2023-08-17T02:44:37;4.93;;;4.22;;
38787;SDS011;24536;45.488;12.238;2023-08-17T02:47:03;5.47;;;4.43;;
38787;SDS011;24536;45.488;12.238;2023-08-17T02:49:28;5.13;;;4.28;;
38787;SDS011;24536;45.488;12.238;2023-08-17T02:51:54;5.82;;;4.15;;
38787;SDS011;24536;45.488;12.238;2023-08-17T02:54:20;4.43;;;4.03;;
38787;SDS011;24536;45.488;12.238;2023-08-17T02:56:45;4.97;;;4.43;;
38787;SDS011;24536;45.488;12.238;2023-08-17T02:59:11;6.07;;;5.00;;
38787;SDS011;24536;45.488;12.238;2023-08-17T03:13:13;5.70;;;4.82;;
38787;SDS011;24536;45.488;12.238;2023-08-17T03:15:40;7.43;;;5.03;;
38787;SDS011;24536;45.488;12.238;2023-08-17T03:18:06;6.38;;;4.50;;
38787;SDS011;24536;45.488;12.238;2023-08-17T03:20:50;4.90;;;4.43;;
38787;SDS011;24536;45.488;12.238;2023-08-17T03:23:16;6.07;;;4.93;;
38787;SDS011;24536;45.488;12.238;2023-08-17T03:25:42;5.60;;;5.03;;
38787;SDS011;24536;45.488;12.238;2023-08-17T03:28:07;4.82;;;4.32;;
38787;SDS011;24536;45.488;12.238;2023-08-17T03:33:45;5.13;;;4.57;;
38787;SDS011;24536;45.488;12.238;2023-08-17T03:36:30;4.50;;;4.10;;
38787;SDS011;24536;45.488;12.238;2023-08-17T03:38:55;4.93;;;4.43;;
38787;SDS011;24536;45.488;12.238;2023-08-17T03:41:39;5.05;;;4.45;;
38787;SDS011;24536;45.488;12.238;2023-08-17T03:44:06;5.50;;;4.68;;
38787;SDS011;24536;45.488;12.238;2023-08-17T03:50:13;5.55;;;4.90;;
38787;SDS011;24536;45.488;12.238;2023-08-17T03:55:48;5.70;;;5.07;;
38787;SDS011;24536;45.488;12.238;2023-08-17T04:01:00;5.40;;;4.90;;
38787;SDS011;24536;45.488;12.238;2023-08-17T04:03:32;4.95;;;4.45;;
38787;SDS011;24536;45.488;12.238;2023-08-17T04:06:03;5.25;;;4.75;;
38787;SDS011;24536;45.488;12.238;2023-08-17T04:08:40;5.03;;;4.50;;
38787;SDS011;24536;45.488;12.238;2023-08-17T04:11:25;5.68;;;4.88;;
38787;SDS011;24536;45.488;12.238;2023-08-17T04:19:55;6.22;;;4.80;;
38787;SDS011;24536;45.488;12.238;2023-08-17T04:22:26;5.35;;;4.85;;
38787;SDS011;24536;45.488;12.238;2023-08-17T04:31:00;5.65;;;5.07;;
38787;SDS011;24536;45.488;12.238;2023-08-17T04:33:26;7.28;;;5.28;;
38787;SDS011;24536;45.488;12.238;2023-08-17T04:36:07;6.00;;;5.07;;
38787;SDS011;24536;45.488;12.238;2023-08-17T04:38:32;5.93;;;5.10;;
38787;SDS011;24536;45.488;12.238;2023-08-17T04:40:59;6.63;;;5.28;;
38787;SDS011;24536;45.488;12.238;2023-08-17T04:43:26;6.80;;;5.63;;
38787;SDS011;24536;45.488;12.238;2023-08-17T04:45:52;7.03;;;6.30;;
38787;SDS011;24536;45.488;12.238;2023-08-17T04:48:18;5.28;;;4.78;;
38787;SDS011;24536;45.488;12.238;2023-08-17T04:50:44;7.63;;;6.13;;
38787;SDS011;24536;45.488;12.238;2023-08-17T04:53:13;7.00;;;5.13;;
38787;SDS011;24536;45.488;12.238;2023-08-17T04:56:02;5.68;;;5.13;;
38787;SDS011;24536;45.488;12.238;2023-08-17T04:58:28;5.88;;;5.30;;
38787;SDS011;24536;45.488;12.238;2023-08-17T05:00:54;5.70;;;5.20;;
38787;SDS011;24536;45.488;12.238;2023-08-17T05:03:21;7.45;;;5.40;;
38787;SDS011;24536;45.488;12.238;2023-08-17T05:05:46;6.07;;;5.47;;
38787;SDS011;24536;45.488;12.238;2023-08-17T05:08:12;8.45;;;6.95;;
38787;SDS011;24536;45.488;12.238;2023-08-17T05:10:39;5.60;;;5.10;;
38787;SDS011;24536;45.488;12.238;2023-08-17T05:13:04;4.90;;;4.28;;
38787;SDS011;24536;45.488;12.238;2023-08-17T05:15:30;6.45;;;5.35;;
38787;SDS011;24536;45.488;12.238;2023-08-17T05:17:56;5.90;;;5.22;;
38787;SDS011;24536;45.488;12.238;2023-08-17T05:20:22;5.13;;;4.63;;
38787;SDS011;24536;45.488;12.238;2023-08-17T05:22:47;6.38;;;5.18;;
38787;SDS011;24536;45.488;12.238;2023-08-17T05:25:13;6.25;;;5.65;;
38787;SDS011;24536;45.488;12.238;2023-08-17T05:27:39;12.20;;;5.88;;
38787;SDS011;24536;45.488;12.238;2023-08-17T05:30:05;5.88;;;4.88;;
38787;SDS011;24536;45.488;12.238;2023-08-17T05:32:31;5.45;;;4.95;;
38787;SDS011;24536;45.488;12.238;2023-08-17T05:34:57;6.72;;;5.38;;
38787;SDS011;24536;45.488;12.238;2023-08-17T05:37:23;5.72;;;5.00;;
38787;SDS011;24536;45.488;12.238;2023-08-17T05:39:49;6.20;;;5.43;;
38787;SDS011;24536;45.488;12.238;2023-08-17T05:42:15;5.88;;;5.25;;
38787;SDS011;24536;45.488;12.238;2023-08-17T05:44:41;6.13;;;4.88;;
38787;SDS011;24536;45.488;12.238;2023-08-17T05:47:06;5.60;;;4.45;;
38787;SDS011;24536;45.488;12.238;2023-08-17T05:49:33;5.68;;;5.13;;
38787;SDS011;24536;45.488;12.238;2023-08-17T05:52:00;6.15;;;5.00;;
38787;SDS011;24536;45.488;12.238;2023-08-17T05:54:26;5.10;;;4.70;;
38787;SDS011;24536;45.488;12.238;2023-08-17T05:56:51;5.20;;;4.70;;
38787;SDS011;24536;45.488;12.238;2023-08-17T05:59:17;6.00;;;4.55;;
38787;SDS011;24536;45.488;12.238;2023-08-17T06:01:43;4.75;;;4.30;;
38787;SDS011;24536;45.488;12.238;2023-08-17T06:04:08;14.45;;;6.32;;
38787;SDS011;24536;45.488;12.238;2023-08-17T06:06:34;12.98;;;5.07;;
38787;SDS011;24536;45.488;12.238;2023-08-17T06:09:00;6.05;;;4.72;;
38787;SDS011;24536;45.488;12.238;2023-08-17T06:11:26;5.68;;;5.03;;
38787;SDS011;24536;45.488;12.238;2023-08-17T06:13:51;5.18;;;4.50;;
38787;SDS011;24536;45.488;12.238;2023-08-17T06:16:17;5.20;;;4.68;;
38787;SDS011;24536;45.488;12.238;2023-08-17T06:18:43;9.30;;;4.65;;
38787;SDS011;24536;45.488;12.238;2023-08-17T06:21:09;4.57;;;4.10;;
38787;SDS011;24536;45.488;12.238;2023-08-17T06:23:34;5.07;;;3.92;;
38787;SDS011;24536;45.488;12.238;2023-08-17T06:26:02;4.50;;;4.10;;
38787;SDS011;24536;45.488;12.238;2023-08-17T06:28:28;5.05;;;4.22;;
38787;SDS011;24536;45.488;12.238;2023-08-17T06:30:55;4.70;;;3.97;;
38787;SDS011;24536;45.488;12.238;2023-08-17T06:33:21;5.22;;;4.50;;
38787;SDS011;24536;45.488;12.238;2023-08-17T06:35:49;4.85;;;4.35;;
38787;SDS011;24536;45.488;12.238;2023-08-17T06:38:17;4.78;;;4.28;;
38787;SDS011;24536;45.488;12.238;2023-08-17T06:40:44;7.13;;;4.28;;
38787;SDS011;24536;45.488;12.238;2023-08-17T06:43:11;7.72;;;5.32;;
38787;SDS011;24536;45.488;12.238;2023-08-17T06:45:37;5.38;;;4.85;;
38787;SDS011;24536;45.488;12.238;2023-08-17T06:48:03;6.00;;;4.43;;
38787;SDS011;24536;45.488;12.238;2023-08-17T06:50:29;5.15;;;4.32;;
38787;SDS011;24536;45.488;12.238;2023-08-17T06:52:54;5.68;;;4.50;;
38787;SDS011;24536;45.488;12.238;2023-08-17T06:55:20;4.40;;;4.00;;
38787;SDS011;24536;45.488;12.238;2023-08-17T06:57:47;4.57;;;4.15;;
38787;SDS011;24536;45.488;12.238;2023-08-17T07:00:16;4.50;;;4.10;;
38787;SDS011;24536;45.488;12.238;2023-08-17T07:02:45;5.38;;;4.88;;
38787;SDS011;24536;45.488;12.238;2023-08-17T07:05:13;5.57;;;4.38;;
38787;SDS011;24536;45.488;12.238;2023-08-17T07:07:42;4.60;;;4.20;;
38787;SDS011;24536;45.488;12.238;2023-08-17T07:10:08;4.88;;;4.43;;
38787;SDS011;24536;45.488;12.238;2023-08-17T07:12:36;5.75;;;4.10;;
38787;SDS011;24536;45.488;12.238;2023-08-17T07:15:04;6.10;;;4.68;;
38787;SDS011;24536;45.488;12.238;2023-08-17T07:17:31;4.75;;;4.20;;
38787;SDS011;24536;45.488;12.238;2023-08-17T07:19:59;5.72;;;4.47;;
38787;SDS011;24536;45.488;12.238;2023-08-17T07:22:24;6.03;;;4.93;;
38787;SDS011;24536;45.488;12.238;2023-08-17T07:24:50;4.47;;;3.85;;
38787;SDS011;24536;45.488;12.238;2023-08-17T07:27:16;6.55;;;4.30;;
38787;SDS011;24536;45.488;12.238;2023-08-17T07:29:41;4.60;;;4.03;;
38787;SDS011;24536;45.488;12.238;2023-08-17T07:32:07;5.18;;;3.90;;
38787;SDS011;24536;45.488;12.238;2023-08-17T07:34:34;4.63;;;4.07;;
38787;SDS011;24536;45.488;12.238;2023-08-17T07:37:00;5.03;;;4.18;;
38787;SDS011;24536;45.488;12.238;2023-08-17T07:39:26;5.60;;;4.95;;
38787;SDS011;24536;45.488;12.238;2023-08-17T07:41:52;5.38;;;3.92;;
38787;SDS011;24536;45.488;12.238;2023-08-17T07:44:17;4.72;;;4.30;;
38787;SDS011;24536;45.488;12.238;2023-08-17T07:46:43;4.55;;;4.15;;
38787;SDS011;24536;45.488;12.238;2023-08-17T07:49:09;5.13;;;4.15;;
38787;SDS011;24536;45.488;12.238;2023-08-17T07:51:34;6.30;;;4.18;;
38787;SDS011;24536;45.488;12.238;2023-08-17T07:54:00;4.45;;;4.05;;
38787;SDS011;24536;45.488;12.238;2023-08-17T07:56:26;4.20;;;3.80;;
38787;SDS011;24536;45.488;12.238;2023-08-17T07:58:54;5.38;;;3.90;;
38787;SDS011;24536;45.488;12.238;2023-08-17T08:01:20;5.45;;;4.90;;
38787;SDS011;24536;45.488;12.238;2023-08-17T08:03:46;5.43;;;4.32;;
38787;SDS011;24536;45.488;12.238;2023-08-17T08:06:12;6.00;;;4.53;;
38787;SDS011;24536;45.488;12.238;2023-08-17T08:08:38;6.55;;;4.22;;
38787;SDS011;24536;45.488;12.238;2023-08-17T08:11:04;5.35;;;4.55;;
38787;SDS011;24536;45.488;12.238;2023-08-17T08:13:30;6.00;;;4.07;;
38787;SDS011;24536;45.488;12.238;2023-08-17T08:15:58;5.95;;;4.35;;
38787;SDS011;24536;45.488;12.238;2023-08-17T08:18:24;4.90;;;4.07;;
38787;SDS011;24536;45.488;12.238;2023-08-17T08:20:50;4.57;;;4.10;;
38787;SDS011;24536;45.488;12.238;2023-08-17T08:23:16;6.32;;;4.10;;
38787;SDS011;24536;45.488;12.238;2023-08-17T08:25:41;4.85;;;4.07;;
38787;SDS011;24536;45.488;12.238;2023-08-17T08:28:07;8.32;;;4.15;;
38787;SDS011;24536;45.488;12.238;2023-08-17T08:30:33;3.78;;;3.47;;
38787;SDS011;24536;45.488;12.238;2023-08-17T08:32:59;12.05;;;4.40;;
38787;SDS011;24536;45.488;12.238;2023-08-17T08:35:25;10.45;;;4.55;;
38787;SDS011;24536;45.488;12.238;2023-08-17T08:37:52;4.70;;;3.75;;
38787;SDS011;24536;45.488;12.238;2023-08-17T08:43:02;4.55;;;4.00;;
38787;SDS011;24536;45.488;12.238;2023-08-17T08:45:29;4.82;;;3.33;;
38787;SDS011;24536;45.488;12.238;2023-08-17T08:47:56;4.90;;;3.67;;
38787;SDS011;24536;45.488;12.238;2023-08-17T08:50:25;7.47;;;4.18;;
38787;SDS011;24536;45.488;12.238;2023-08-17T08:52:57;3.92;;;3.58;;
38787;SDS011;24536;45.488;12.238;2023-08-17T08:55:26;4.00;;;3.60;;
38787;SDS011;24536;45.488;12.238;2023-08-17T08:57:54;6.78;;;4.15;;
38787;SDS011;24536;45.488;12.238;2023-08-17T09:00:21;5.68;;;4.68;;
38787;SDS011;24536;45.488;12.238;2023-08-17T09:02:49;6.57;;;3.78;;
38787;SDS011;24536;45.488;12.238;2023-08-17T09:05:16;4.75;;;4.30;;
38787;SDS011;24536;45.488;12.238;2023-08-17T09:07:42;4.25;;;3.85;;
38787;SDS011;24536;45.488;12.238;2023-08-17T09:10:09;4.65;;;4.13;;
38787;SDS011;24536;45.488;12.238;2023-08-17T09:12:35;4.00;;;3.70;;
38787;SDS011;24536;45.488;12.238;2023-08-17T09:15:01;3.88;;;3.47;;
38787;SDS011;24536;45.488;12.238;2023-08-17T09:17:31;6.03;;;3.45;;
38787;SDS011;24536;45.488;12.238;2023-08-17T09:20:02;5.63;;;3.92;;
38787;SDS011;24536;45.488;12.238;2023-08-17T09:22:39;7.68;;;4.00;;
38787;SDS011;24536;45.488;12.238;2023-08-17T09:25:07;4.45;;;3.88;;
38787;SDS011;24536;45.488;12.238;2023-08-17T09:27:36;12.68;;;3.80;;
38787;SDS011;24536;45.488;12.238;2023-08-17T09:30:03;6.68;;;3.90;;
38787;SDS011;24536;45.488;12.238;2023-08-17T09:32:33;4.55;;;4.00;;
38787;SDS011;24536;45.488;12.238;2023-08-17T09:35:02;7.35;;;4.05;;
38787;SDS011;24536;45.488;12.238;2023-08-17T09:37:30;4.05;;;3.65;;
38787;SDS011;24536;45.488;12.238;2023-08-17T09:39:56;6.85;;;3.78;;
38787;SDS011;24536;45.488;12.238;2023-08-17T09:42:22;5.63;;;3.80;;
38787;SDS011;24536;45.488;12.238;2023-08-17T09:44:48;4.10;;;3.50;;
38787;SDS011;24536;45.488;12.238;2023-08-17T09:47:16;4.05;;;3.65;;
38787;SDS011;24536;45.488;12.238;2023-08-17T09:49:43;3.80;;;3.47;;
38787;SDS011;24536;45.488;12.238;2023-08-17T09:52:13;7.07;;;3.90;;
38787;SDS011;24536;45.488;12.238;2023-08-17T09:54:39;5.53;;;3.83;;
38787;SDS011;24536;45.488;12.238;2023-08-17T09:57:06;4.35;;;3.90;;
38787;SDS011;24536;45.488;12.238;2023-08-17T09:59:33;4.03;;;3.58;;
38787;SDS011;24536;45.488;12.238;2023-08-17T10:01:58;5.10;;;3.95;;
38787;SDS011;24536;45.488;12.238;2023-08-17T10:04:25;4.82;;;3.30;;
38787;SDS011;24536;45.488;12.238;2023-08-17T10:06:56;7.72;;;4.18;;
38787;SDS011;24536;45.488;12.238;2023-08-17T10:09:25;6.97;;;3.50;;
38787;SDS011;24536;45.488;12.238;2023-08-17T10:11:57;4.80;;;3.40;;
38787;SDS011;24536;45.488;12.238;2023-08-17T10:14:32;3.65;;;3.30;;
38787;SDS011;24536;45.488;12.238;2023-08-17T10:17:09;3.83;;;3.47;;
38787;SDS011;24536;45.488;12.238;2023-08-17T10:19:47;4.25;;;3.42;;
38787;SDS011;24536;45.488;12.238;2023-08-17T10:25:11;6.72;;;4.15;;
38787;SDS011;24536;45.488;12.238;2023-08-17T10:27:38;4.18;;;3.78;;
38787;SDS011;24536;45.488;12.238;2023-08-17T10:30:07;4.30;;;3.30;;
38787;SDS011;24536;45.488;12.238;2023-08-17T10:32:36;11.50;;;4.15;;
38787;SDS011;24536;45.488;12.238;2023-08-17T10:35:03;5.25;;;3.67;;
38787;SDS011;24536;45.488;12.238;2023-08-17T10:37:31;4.68;;;3.33;;
38787;SDS011;24536;45.488;12.238;2023-08-17T10:39:57;4.57;;;3.40;;
38787;SDS011;24536;45.488;12.238;2023-08-17T10:42:32;3.30;;;3.00;;
38787;SDS011;24536;45.488;12.238;2023-08-17T10:45:00;4.50;;;3.65;;
38787;SDS011;24536;45.488;12.238;2023-08-17T10:49:56;5.32;;;3.22;;
38787;SDS011;24536;45.488;12.238;2023-08-17T10:52:26;3.50;;;3.20;;
38787;SDS011;24536;45.488;12.238;2023-08-17T10:54:53;3.78;;;3.30;;
38787;SDS011;24536;45.488;12.238;2023-08-17T11:03:03;4.20;;;2.92;;
38787;SDS011;24536;45.488;12.238;2023-08-17T11:08:20;3.88;;;3.53;;
38787;SDS011;24536;45.488;12.238;2023-08-17T11:11:10;4.38;;;3.80;;
38787;SDS011;24536;45.488;12.238;2023-08-17T11:13:38;4.88;;;3.50;;
38787;SDS011;24536;45.488;12.238;2023-08-17T11:16:06;4.80;;;3.70;;
38787;SDS011;24536;45.488;12.238;2023-08-17T11:18:33;11.88;;;3.80;;
38787;SDS011;24536;45.488;12.238;2023-08-17T11:21:00;3.38;;;3.08;;
38787;SDS011;24536;45.488;12.238;2023-08-17T11:23:28;6.57;;;3.60;;
38787;SDS011;24536;45.488;12.238;2023-08-17T11:25:59;7.65;;;3.50;;
38787;SDS011;24536;45.488;12.238;2023-08-17T11:28:26;5.32;;;3.53;;
38787;SDS011;24536;45.488;12.238;2023-08-17T11:30:58;3.75;;;3.38;;
38787;SDS011;24536;45.488;12.238;2023-08-17T11:33:25;5.28;;;3.40;;
38787;SDS011;24536;45.488;12.238;2023-08-17T11:35:53;3.92;;;3.35;;
38787;SDS011;24536;45.488;12.238;2023-08-17T11:38:23;3.85;;;3.40;;
38787;SDS011;24536;45.488;12.238;2023-08-17T11:40:49;4.32;;;3.20;;
38787;SDS011;24536;45.488;12.238;2023-08-17T11:43:15;4.13;;;3.22;;
38787;SDS011;24536;45.488;12.238;2023-08-17T11:45:41;4.75;;;3.90;;
38787;SDS011;24536;45.488;12.238;2023-08-17T11:48:07;4.50;;;3.50;;
38787;SDS011;24536;45.488;12.238;2023-08-17T11:50:34;4.30;;;3.90;;
38787;SDS011;24536;45.488;12.238;2023-08-17T11:53:01;4.32;;;2.90;;
38787;SDS011;24536;45.488;12.238;2023-08-17T11:55:27;5.25;;;3.60;;
38787;SDS011;24536;45.488;12.238;2023-08-17T11:57:52;6.60;;;3.88;;
38787;SDS011;24536;45.488;12.238;2023-08-17T12:00:19;3.67;;;3.30;;
38787;SDS011;24536;45.488;12.238;2023-08-17T12:02:49;4.63;;;3.30;;
38787;SDS011;24536;45.488;12.238;2023-08-17T12:05:22;4.53;;;3.55;;
38787;SDS011;24536;45.488;12.238;2023-08-17T12:07:49;5.57;;;3.33;;
38787;SDS011;24536;45.488;12.238;2023-08-17T12:10:17;4.00;;;3.40;;
38787;SDS011;24536;45.488;12.238;2023-08-17T12:12:44;6.07;;;3.60;;
38787;SDS011;24536;45.488;12.238;2023-08-17T12:15:11;4.72;;;3.25;;
38787;SDS011;24536;45.488;12.238;2023-08-17T12:17:40;4.03;;;3.05;;
38787;SDS011;24536;45.488;12.238;2023-08-17T12:20:14;4.35;;;3.53;;
38787;SDS011;24536;45.488;12.238;2023-08-17T12:22:44;4.45;;;4.05;;
38787;SDS011;24536;45.488;12.238;2023-08-17T12:25:13;3.80;;;3.20;;
38787;SDS011;24536;45.488;12.238;2023-08-17T12:27:40;3.90;;;3.20;;
38787;SDS011;24536;45.488;12.238;2023-08-17T12:30:13;4.47;;;3.13;;
38787;SDS011;24536;45.488;12.238;2023-08-17T12:32:49;5.30;;;3.40;;
38787;SDS011;24536;45.488;12.238;2023-08-17T12:35:14;4.50;;;3.28;;
38787;SDS011;24536;45.488;12.238;2023-08-17T12:37:40;4.57;;;3.38;;
38787;SDS011;24536;45.488;12.238;2023-08-17T12:40:06;4.20;;;3.15;;
38787;SDS011;24536;45.488;12.238;2023-08-17T12:42:33;8.73;;;3.13;;
38787;SDS011;24536;45.488;12.238;2023-08-17T12:44:58;4.50;;;3.63;;
38787;SDS011;24536;45.488;12.238;2023-08-17T12:47:24;3.85;;;2.90;;
38787;SDS011;24536;45.488;12.238;2023-08-17T12:49:50;5.30;;;3.28;;
38787;SDS011;24536;45.488;12.238;2023-08-17T12:52:16;4.55;;;2.92;;
38787;SDS011;24536;45.488;12.238;2023-08-17T12:54:41;4.47;;;3.17;;
38787;SDS011;24536;45.488;12.238;2023-08-17T12:57:07;4.32;;;3.20;;
38787;SDS011;24536;45.488;12.238;2023-08-17T12:59:33;4.00;;;3.30;;
38787;SDS011;24536;45.488;12.238;2023-08-17T13:01:59;5.78;;;3.20;;
38787;SDS011;24536;45.488;12.238;2023-08-17T13:04:25;3.70;;;2.90;;
38787;SDS011;24536;45.488;12.238;2023-08-17T13:06:50;6.63;;;4.18;;
38787;SDS011;24536;45.488;12.238;2023-08-17T13:09:16;3.95;;;3.33;;
38787;SDS011;24536;45.488;12.238;2023-08-17T13:11:44;6.28;;;3.75;;
38787;SDS011;24536;45.488;12.238;2023-08-17T13:14:10;6.80;;;4.70;;
38787;SDS011;24536;45.488;12.238;2023-08-17T13:16:37;7.13;;;4.43;;
38787;SDS011;24536;45.488;12.238;2023-08-17T13:19:02;4.63;;;3.40;;
38787;SDS011;24536;45.488;12.238;2023-08-17T13:21:28;5.47;;;3.42;;
38787;SDS011;24536;45.488;12.238;2023-08-17T13:23:54;5.25;;;3.22;;
38787;SDS011;24536;45.488;12.238;2023-08-17T13:26:21;8.88;;;4.68;;
38787;SDS011;24536;45.488;12.238;2023-08-17T13:28:48;5.35;;;4.50;;
38787;SDS011;24536;45.488;12.238;2023-08-17T13:31:13;3.63;;;3.30;;
38787;SDS011;24536;45.488;12.238;2023-08-17T13:33:39;4.15;;;3.50;;
38787;SDS011;24536;45.488;12.238;2023-08-17T13:36:05;3.67;;;3.38;;
38787;SDS011;24536;45.488;12.238;2023-08-17T13:38:31;5.38;;;4.40;;
38787;SDS011;24536;45.488;12.238;2023-08-17T13:40:57;4.22;;;3.70;;
38787;SDS011;24536;45.488;12.238;2023-08-17T13:43:22;7.32;;;3.33;;
38787;SDS011;24536;45.488;12.238;2023-08-17T13:45:48;5.70;;;3.22;;
38787;SDS011;24536;45.488;12.238;2023-08-17T13:48:14;3.92;;;2.70;;
38787;SDS011;24536;45.488;12.238;2023-08-17T13:50:40;3.85;;;3.45;;
38787;SDS011;24536;45.488;12.238;2023-08-17T13:53:05;8.38;;;4.93;;
38787;SDS011;24536;45.488;12.238;2023-08-17T13:55:31;6.80;;;4.82;;
38787;SDS011;24536;45.488;12.238;2023-08-17T13:57:57;3.67;;;3.33;;
38787;SDS011;24536;45.488;12.238;2023-08-17T14:00:24;3.30;;;3.00;;
38787;SDS011;24536;45.488;12.238;2023-08-17T14:02:51;4.57;;;3.38;;
38787;SDS011;24536;45.488;12.238;2023-08-17T14:05:17;4.43;;;3.38;;
38787;SDS011;24536;45.488;12.238;2023-08-17T14:07:43;5.32;;;4.18;;
38787;SDS011;24536;45.488;12.238;2023-08-17T14:10:09;5.50;;;3.40;;
38787;SDS011;24536;45.488;12.238;2023-08-17T14:12:35;5.38;;;4.53;;
38787;SDS011;24536;45.488;12.238;2023-08-17T14:15:01;4.88;;;4.05;;
38787;SDS011;24536;45.488;12.238;2023-08-17T14:17:27;4.13;;;3.60;;
38787;SDS011;24536;45.488;12.238;2023-08-17T14:19:53;3.33;;;2.95;;
38787;SDS011;24536;45.488;12.238;2023-08-17T14:22:20;19.23;;;3.50;;
38787;SDS011;24536;45.488;12.238;2023-08-17T14:24:45;3.22;;;2.90;;
38787;SDS011;24536;45.488;12.238;2023-08-17T14:27:11;4.28;;;3.85;;
38787;SDS011;24536;45.488;12.238;2023-08-17T14:29:37;6.15;;;4.00;;
38787;SDS011;24536;45.488;12.238;2023-08-17T14:32:03;4.88;;;3.20;;
38787;SDS011;24536;45.488;12.238;2023-08-17T14:34:29;2.97;;;2.67;;
38787;SDS011;24536;45.488;12.238;2023-08-17T14:36:55;4.05;;;3.53;;
38787;SDS011;24536;45.488;12.238;2023-08-17T14:39:21;5.60;;;3.30;;
38787;SDS011;24536;45.488;12.238;2023-08-17T14:41:46;4.90;;;2.95;;
38787;SDS011;24536;45.488;12.238;2023-08-17T14:44:12;4.22;;;3.17;;
38787;SDS011;24536;45.488;12.238;2023-08-17T14:46:38;3.30;;;3.00;;
38787;SDS011;24536;45.488;12.238;2023-08-17T14:49:04;5.78;;;3.67;;
38787;SDS011;24536;45.488;12.238;2023-08-17T14:51:30;3.47;;;3.17;;
38787;SDS011;24536;45.488;12.238;2023-08-17T14:54:06;3.75;;;3.00;;
38787;SDS011;24536;45.488;12.238;2023-08-17T14:56:33;3.85;;;2.78;;
38787;SDS011;24536;45.488;12.238;2023-08-17T14:58:59;6.18;;;3.17;;
38787;SDS011;24536;45.488;12.238;2023-08-17T15:01:25;3.28;;;2.90;;
38787;SDS011;24536;45.488;12.238;2023-08-17T15:03:50;3.63;;;2.88;;
38787;SDS011;24536;45.488;12.238;2023-08-17T15:06:16;3.17;;;2.70;;
38787;SDS011;24536;45.488;12.238;2023-08-17T15:08:42;4.45;;;3.20;;
38787;SDS011;24536;45.488;12.238;2023-08-17T15:11:07;3.83;;;2.70;;
38787;SDS011;24536;45.488;12.238;2023-08-17T15:13:34;5.03;;;3.50;;
38787;SDS011;24536;45.488;12.238;2023-08-17T15:16:00;3.83;;;3.17;;
38787;SDS011;24536;45.488;12.238;2023-08-17T15:18:26;5.85;;;3.20;;
38787;SDS011;24536;45.488;12.238;2023-08-17T15:20:52;2.70;;;2.50;;
38787;SDS011;24536;45.488;12.238;2023-08-17T15:23:17;2.63;;;2.42;;
38787;SDS011;24536;45.488;12.238;2023-08-17T15:25:43;4.50;;;2.80;;
38787;SDS011;24536;45.488;12.238;2023-08-17T15:28:09;3.30;;;3.00;;
38787;SDS011;24536;45.488;12.238;2023-08-17T15:30:34;3.03;;;2.50;;
38787;SDS011;24536;45.488;12.238;2023-08-17T15:33:00;2.78;;;2.58;;
38787;SDS011;24536;45.488;12.238;2023-08-17T15:35:26;3.67;;;2.45;;
38787;SDS011;24536;45.488;12.238;2023-08-17T15:37:51;3.95;;;3.00;;